Time;durP1;ratioP1;P1;durP2;ratioP2;P2;SDS_P1;SDS_P2;PMS_P1;PMS_P2;Temp;Humidity;BMP_temperature;BMP_pressure;BME280_temperature;BME280_humidity;BME280_pressure;Samples;Min_cycle;Max_cycle;Signal;HPM_P1;HPM_P2
2022/11/07 00:01:46;;;;;;;3.13;1.00;;;9.80;99.90;;;;;;5078945;28;20431;-70
2022/11/07 00:04:14;;;;;;;2.75;1.45;;;9.90;99.90;;;;;;5079542;28;20025;-70
2022/11/07 00:06:41;;;;;;;3.35;1.17;;;9.90;99.90;;;;;;5079517;28;20031;-70
2022/11/07 00:09:08;;;;;;;3.72;1.27;;;9.90;99.90;;;;;;5079404;28;20102;-70
2022/11/07 00:11:35;;;;;;;4.22;1.40;;;10.00;99.90;;;;;;5079129;28;20025;-70
2022/11/07 00:14:03;;;;;;;4.50;1.30;;;10.00;99.90;;;;;;5078811;28;20431;-70
2022/11/07 00:16:31;;;;;;;3.55;1.33;;;10.00;99.90;;;;;;5078967;28;20431;-70
2022/11/07 00:18:58;;;;;;;2.17;1.20;;;10.00;99.90;;;;;;5079358;28;20036;-70
2022/11/07 00:21:25;;;;;;;4.32;1.30;;;10.00;99.90;;;;;;5079162;28;20313;-70
2022/11/07 00:23:52;;;;;;;4.90;1.30;;;10.10;99.90;;;;;;5078620;28;20096;-70
2022/11/07 00:26:20;;;;;;;3.08;1.00;;;10.10;99.90;;;;;;5079115;28;20013;-70
2022/11/07 00:28:47;;;;;;;3.53;1.05;;;10.10;99.90;;;;;;5078658;28;20048;-70
2022/11/07 00:31:15;;;;;;;1.90;1.10;;;10.10;99.90;;;;;;5060691;28;20025;-70
2022/11/07 00:33:43;;;;;;;3.90;1.10;;;10.10;99.90;;;;;;5078772;28;20432;-69
2022/11/07 00:36:17;;;;;;;4.32;1.20;;;10.20;99.90;;;;;;5078382;28;20417;-70
2022/11/07 00:38:44;;;;;;;5.28;1.13;;;10.10;99.90;;;;;;5078134;28;20025;-70
2022/11/07 00:41:12;;;;;;;3.60;1.42;;;10.20;99.90;;;;;;5078837;28;20312;-70
2022/11/07 00:43:40;;;;;;;2.65;1.00;;;10.20;99.90;;;;;;5078087;28;20054;-70
2022/11/07 00:46:09;;;;;;;2.55;1.00;;;10.20;99.90;;;;;;5060348;28;20025;-70
2022/11/07 00:48:36;;;;;;;5.25;1.30;;;10.20;99.90;;;;;;5060362;28;20029;-70
2022/11/07 00:51:22;;;;;;;2.67;1.02;;;10.20;99.90;;;;;;5078064;28;20165;-70
2022/11/07 00:53:50;;;;;;;1.65;0.85;;;10.20;99.90;;;;;;5078234;28;20021;-70
2022/11/07 00:56:21;;;;;;;4.63;1.63;;;10.20;99.90;;;;;;5060124;28;20056;-70
2022/11/07 00:58:53;;;;;;;2.22;1.33;;;10.20;99.90;;;;;;5078427;28;20340;-69
2022/11/07 01:01:24;;;;;;;3.38;1.35;;;10.30;99.90;;;;;;5077581;28;20041;-69
2022/11/07 01:06:39;;;;;;;;;;;10.20;99.90;;;;;;5078470;28;20028;-70
2022/11/07 01:09:08;;;;;;;4.05;1.20;;;10.20;99.90;;;;;;5077644;28;19905;-70
2022/11/07 01:11:38;;;;;;;3.67;1.33;;;10.30;99.90;;;;;;5077070;28;20025;-70
2022/11/07 01:14:07;;;;;;;2.63;0.95;;;10.30;99.90;;;;;;5077672;28;20039;-70
2022/11/07 01:16:34;;;;;;;4.72;1.23;;;10.30;99.90;;;;;;5077459;28;20027;-70
2022/11/07 01:19:03;;;;;;;3.25;1.05;;;10.30;99.90;;;;;;5077458;28;20020;-70
2022/11/07 01:21:30;;;;;;;5.15;1.30;;;10.30;99.90;;;;;;5077370;28;20028;-70
2022/11/07 01:23:59;;;;;;;5.00;1.02;;;10.30;99.90;;;;;;5060553;28;20013;-69
2022/11/07 01:26:26;;;;;;;3.03;0.88;;;10.30;99.90;;;;;;5077284;28;20485;-70
2022/11/07 01:28:53;;;;;;;2.50;1.02;;;10.30;99.90;;;;;;5077886;28;20033;-70
2022/11/07 01:31:20;;;;;;;2.78;1.38;;;10.40;99.90;;;;;;5077311;28;20048;-70
2022/11/07 01:33:48;;;;;;;4.45;1.00;;;10.40;99.90;;;;;;5059942;28;20028;-70
2022/11/07 01:36:18;;;;;;;10.45;1.30;;;10.40;99.90;;;;;;5077457;28;20024;-69
2022/11/07 01:38:50;;;;;;;3.33;0.93;;;10.40;99.90;;;;;;5077337;28;20056;-69
2022/11/07 01:41:31;;;;;;;4.25;0.95;;;10.40;99.90;;;;;;5076995;28;20024;-70
2022/11/07 01:44:24;;;;;;;3.55;1.00;;;10.40;99.90;;;;;;5077767;28;20084;-70
2022/11/07 01:46:56;;;;;;;1.77;0.68;;;10.50;99.90;;;;;;5059182;28;20024;-70
2022/11/07 01:49:33;;;;;;;3.58;1.17;;;10.50;99.90;;;;;;5076988;28;20056;-70
2022/11/07 01:52:12;;;;;;;3.92;1.20;;;10.50;99.90;;;;;;5076853;28;20036;-70
2022/11/07 01:54:50;;;;;;;3.00;0.90;;;10.50;99.90;;;;;;5059119;28;20028;-70
2022/11/07 01:57:29;;;;;;;5.18;1.20;;;10.50;99.90;;;;;;5076852;28;20020;-70
2022/11/07 02:00:02;;;;;;;6.05;0.88;;;10.50;99.90;;;;;;5076833;28;20036;-70
2022/11/07 02:02:31;;;;;;;4.15;0.90;;;10.50;99.90;;;;;;5076901;28;20025;-69
2022/11/07 02:05:01;;;;;;;6.53;1.08;;;10.50;99.90;;;;;;5075664;28;20021;-70
2022/11/07 02:07:29;;;;;;;5.65;1.25;;;10.60;99.90;;;;;;5076830;28;20023;-69
2022/11/07 02:09:57;;;;;;;6.18;1.20;;;10.60;99.90;;;;;;5077205;28;20415;-69
2022/11/07 02:12:25;;;;;;;5.28;1.83;;;10.60;99.90;;;;;;5076843;28;20089;-70
2022/11/07 02:14:53;;;;;;;2.63;1.00;;;10.60;99.90;;;;;;5076678;28;20028;-70
2022/11/07 02:17:21;;;;;;;4.75;1.05;;;10.60;99.90;;;;;;5076563;28;20032;-69
2022/11/07 02:19:54;;;;;;;5.05;1.05;;;10.60;99.90;;;;;;5076755;28;20298;-69
2022/11/07 02:22:35;;;;;;;5.30;1.00;;;10.60;99.90;;;;;;5075951;28;20019;-69
2022/11/07 02:25:09;;;;;;;4.80;1.10;;;10.70;99.90;;;;;;5077038;28;20147;-70
2022/11/07 02:27:39;;;;;;;3.47;1.08;;;10.70;99.90;;;;;;5076487;28;20021;-70
2022/11/07 02:30:11;;;;;;;4.85;1.13;;;10.70;99.90;;;;;;5076431;28;20028;-70
2022/11/07 02:32:39;;;;;;;3.97;1.00;;;10.70;99.90;;;;;;5058782;28;20024;-69
2022/11/07 02:35:29;;;;;;;2.90;0.88;;;10.70;99.90;;;;;;5076495;28;20023;-70
2022/11/07 02:37:57;;;;;;;3.63;0.98;;;10.80;99.90;;;;;;5076884;28;20488;-70
2022/11/07 02:40:25;;;;;;;5.65;0.98;;;10.80;99.90;;;;;;5076576;28;20119;-69
2022/11/07 02:42:53;;;;;;;3.97;0.93;;;10.80;99.90;;;;;;5058692;28;20031;-69
2022/11/07 02:45:30;;;;;;;3.28;0.80;;;10.70;99.90;;;;;;5076808;28;20016;-70
2022/11/07 02:47:57;;;;;;;3.35;1.05;;;10.70;99.90;;;;;;5076359;28;20025;-70
2022/11/07 02:50:25;;;;;;;2.03;0.93;;;10.80;99.90;;;;;;5076818;28;20025;-69
2022/11/07 02:52:52;;;;;;;3.72;0.77;;;10.70;99.90;;;;;;5076997;28;20325;-69
2022/11/07 02:55:19;;;;;;;2.97;0.98;;;10.70;99.90;;;;;;5076257;28;20021;-70
2022/11/07 02:57:46;;;;;;;2.92;0.80;;;10.80;99.90;;;;;;5059173;28;20082;-70
2022/11/07 03:00:14;;;;;;;1.95;0.85;;;10.70;99.90;;;;;;5076167;28;20051;-70
2022/11/07 03:02:46;;;;;;;2.65;1.02;;;10.70;99.90;;;;;;5042061;28;20302;-69
2022/11/07 03:05:15;;;;;;;2.08;0.95;;;10.70;99.90;;;;;;5076699;28;20028;-70
2022/11/07 03:07:43;;;;;;;4.07;0.93;;;10.80;99.90;;;;;;5076105;28;20020;-70
2022/11/07 03:10:12;;;;;;;2.08;0.88;;;10.80;99.90;;;;;;5076396;28;20374;-70
2022/11/07 03:12:39;;;;;;;3.45;0.80;;;10.80;99.90;;;;;;5075998;28;20482;-70
2022/11/07 03:15:08;;;;;;;5.60;1.05;;;10.80;99.90;;;;;;5058264;28;20328;-69
2022/11/07 03:17:35;;;;;;;5.05;0.80;;;10.80;99.90;;;;;;5075970;28;20016;-70
2022/11/07 03:20:02;;;;;;;4.90;0.90;;;10.80;99.90;;;;;;5058361;28;20328;-69
2022/11/07 03:22:30;;;;;;;5.90;1.30;;;10.80;99.90;;;;;;5058663;28;20017;-69
2022/11/07 03:24:57;;;;;;;3.05;0.77;;;10.80;99.90;;;;;;5058155;28;20016;-70
2022/11/07 03:27:24;;;;;;;3.28;1.20;;;10.80;99.90;;;;;;5059047;28;20440;-70
2022/11/07 03:29:51;;;;;;;2.55;0.85;;;10.80;99.90;;;;;;5075919;28;20035;-69
2022/11/07 03:32:19;;;;;;;3.63;0.85;;;10.80;99.90;;;;;;5075865;28;20024;-70
2022/11/07 03:34:46;;;;;;;3.20;0.70;;;10.80;99.90;;;;;;5077781;28;20382;-70
2022/11/07 03:37:14;;;;;;;2.33;0.65;;;10.80;99.90;;;;;;5079587;28;20084;-70
2022/11/07 03:39:41;;;;;;;3.17;1.00;;;10.80;99.90;;;;;;5079278;28;20056;-70
2022/11/07 03:42:09;;;;;;;2.28;0.98;;;10.80;99.90;;;;;;5079337;28;20078;-70
2022/11/07 03:44:36;;;;;;;3.33;0.98;;;10.80;99.90;;;;;;5079323;28;20404;-70
2022/11/07 03:47:04;;;;;;;4.50;0.85;;;10.70;99.90;;;;;;5079771;28;20068;-70
2022/11/07 03:49:32;;;;;;;3.50;0.70;;;10.70;99.90;;;;;;5079446;28;20025;-69
2022/11/07 03:52:00;;;;;;;2.60;0.60;;;10.70;99.90;;;;;;5079274;28;20036;-70
2022/11/07 03:54:27;;;;;;;2.03;0.60;;;10.70;99.90;;;;;;5079179;28;20023;-69
2022/11/07 03:56:54;;;;;;;3.25;0.77;;;10.70;99.90;;;;;;5078049;28;20028;-70
2022/11/07 03:59:22;;;;;;;3.70;0.80;;;10.80;99.90;;;;;;5061896;28;20049;-70
2022/11/07 04:01:49;;;;;;;2.30;0.88;;;10.80;99.90;;;;;;5079005;28;20016;-70
2022/11/07 04:04:17;;;;;;;2.22;0.80;;;10.80;99.90;;;;;;5061739;28;20408;-69
2022/11/07 04:06:44;;;;;;;2.80;0.80;;;10.80;99.90;;;;;;5078935;28;20073;-69
2022/11/07 04:09:11;;;;;;;2.55;0.80;;;10.80;99.90;;;;;;5078989;28;20027;-69
2022/11/07 04:17:19;;;;;;;2.88;1.00;;;10.80;99.90;;;;;;5079019;28;20079;-70
2022/11/07 04:19:53;;;;;;;3.97;0.73;;;10.80;99.90;;;;;;5077655;28;20032;-69
2022/11/07 04:22:24;;;;;;;4.38;0.93;;;10.70;99.90;;;;;;5078844;28;20028;-70
2022/11/07 04:24:52;;;;;;;2.67;0.73;;;10.70;99.90;;;;;;5079151;28;20021;-69
2022/11/07 04:30:27;;;;;;;1.98;1.10;;;10.70;99.90;;;;;;5079072;28;20031;-70
2022/11/07 04:32:59;;;;;;;2.53;0.63;;;10.70;99.90;;;;;;5078362;28;20052;-69
2022/11/07 04:35:30;;;;;;;3.97;1.08;;;10.70;99.90;;;;;;5078705;28;20021;-70
2022/11/07 04:37:57;;;;;;;7.90;0.82;;;10.70;99.90;;;;;;5060623;28;20028;-70
2022/11/07 04:40:25;;;;;;;4.82;0.88;;;10.70;99.90;;;;;;5078254;28;20027;-70
2022/11/07 04:42:52;;;;;;;8.38;1.27;;;10.70;99.90;;;;;;5078353;28;20065;-69
2022/11/07 04:45:20;;;;;;;7.53;1.00;;;10.60;99.90;;;;;;5059599;28;20416;-70
2022/11/07 04:47:47;;;;;;;3.40;0.80;;;10.60;99.90;;;;;;5078015;28;20033;-70
2022/11/07 04:50:17;;;;;;;3.35;0.88;;;10.50;99.90;;;;;;5078373;28;20405;-70
2022/11/07 04:52:45;;;;;;;5.03;1.30;;;10.40;99.90;;;;;;5060515;28;20063;-69
2022/11/07 04:55:24;;;;;;;7.97;0.75;;;10.30;99.90;;;;;;5077944;28;20035;-69
2022/11/07 04:57:52;;;;;;;2.47;1.05;;;10.30;99.90;;;;;;5078022;28;20059;-70
2022/11/07 05:00:20;;;;;;;3.55;0.82;;;10.30;99.90;;;;;;5056722;28;20049;-70
2022/11/07 05:02:48;;;;;;;4.20;0.77;;;10.30;99.90;;;;;;5058566;28;20126;-69
2022/11/07 05:05:18;;;;;;;3.67;0.90;;;10.30;99.90;;;;;;5058099;28;20024;-70
2022/11/07 05:07:45;;;;;;;2.35;0.57;;;10.40;99.90;;;;;;5057742;28;20440;-70
2022/11/07 05:10:23;;;;;;;3.67;0.88;;;10.50;99.90;;;;;;5058017;28;20025;-70
2022/11/07 05:12:50;;;;;;;1.95;0.70;;;10.50;99.90;;;;;;5057794;28;20025;-70
2022/11/07 05:15:18;;;;;;;2.83;1.10;;;10.60;99.90;;;;;;5057624;28;20431;-70
2022/11/07 05:17:45;;;;;;;3.70;1.40;;;10.60;99.90;;;;;;5056514;28;20056;-70
2022/11/07 05:20:29;;;;;;;2.80;1.17;;;10.70;99.90;;;;;;5057402;28;20033;-70
2022/11/07 05:25:45;;;;;;;5.05;1.38;;;10.70;99.90;;;;;;5057406;28;20031;-70
2022/11/07 05:28:14;;;;;;;4.35;1.15;;;10.70;99.90;;;;;;5057434;28;20032;-70
2022/11/07 05:30:43;;;;;;;5.05;0.95;;;10.70;99.90;;;;;;5056214;28;20078;-70
2022/11/07 05:33:12;;;;;;;5.00;0.80;;;10.80;99.90;;;;;;5057476;28;20029;-70
2022/11/07 05:35:39;;;;;;;2.95;1.35;;;10.80;99.90;;;;;;5057771;28;20017;-70
2022/11/07 05:38:07;;;;;;;5.00;0.80;;;10.80;99.90;;;;;;5057436;28;20033;-70
2022/11/07 05:40:39;;;;;;;5.60;0.68;;;10.80;99.90;;;;;;5057599;28;20047;-70
2022/11/07 05:43:10;;;;;;;2.90;1.05;;;10.70;99.90;;;;;;5057097;28;20017;-69
2022/11/07 05:45:39;;;;;;;4.85;0.85;;;10.80;99.90;;;;;;5056993;28;20017;-70
2022/11/07 05:48:09;;;;;;;5.53;1.60;;;10.80;99.90;;;;;;5056975;28;20048;-70
2022/11/07 05:50:36;;;;;;;4.65;0.80;;;10.80;99.90;;;;;;5057719;28;20036;-70
2022/11/07 05:53:04;;;;;;;3.40;0.80;;;10.80;99.90;;;;;;5057623;28;20032;-70
2022/11/07 05:55:32;;;;;;;2.88;0.82;;;10.80;99.90;;;;;;5056823;28;20111;-69
2022/11/07 05:58:00;;;;;;;3.95;0.80;;;10.80;99.90;;;;;;5056784;28;20095;-70
2022/11/07 06:00:27;;;;;;;5.63;1.65;;;10.80;99.90;;;;;;5072166;28;20052;-70
2022/11/07 06:03:02;;;;;;;2.83;0.70;;;10.80;99.90;;;;;;5056929;28;20018;-70
2022/11/07 06:05:29;;;;;;;5.63;1.10;;;10.80;99.90;;;;;;5056735;28;20317;-70
2022/11/07 06:07:57;;;;;;;3.05;0.70;;;10.80;99.90;;;;;;5056712;28;20017;-70
2022/11/07 06:10:24;;;;;;;6.00;0.82;;;10.80;99.90;;;;;;5057195;28;20036;-70
2022/11/07 06:12:59;;;;;;;6.80;1.35;;;10.80;99.90;;;;;;5072996;28;20108;-70
2022/11/07 06:15:28;;;;;;;6.22;1.35;;;10.80;99.90;;;;;;5056734;28;20025;-70
2022/11/07 06:17:59;;;;;;;4.47;1.30;;;10.90;99.90;;;;;;5056570;28;20029;-70
2022/11/07 06:20:28;;;;;;;3.40;1.45;;;10.90;99.90;;;;;;5056359;28;20021;-70
2022/11/07 06:23:00;;;;;;;2.72;0.88;;;10.90;99.90;;;;;;5056694;28;20017;-70
2022/11/07 06:25:28;;;;;;;2.97;1.40;;;10.90;99.90;;;;;;5056463;28;20048;-70
2022/11/07 06:28:04;;;;;;;3.38;1.55;;;10.90;99.90;;;;;;5056468;28;20052;-70
2022/11/07 06:30:31;;;;;;;4.85;1.20;;;10.90;99.90;;;;;;5056920;28;20424;-69
2022/11/07 06:33:04;;;;;;;5.20;0.68;;;10.90;99.90;;;;;;5056513;28;20029;-69
2022/11/07 06:35:31;;;;;;;5.13;1.33;;;11.00;99.90;;;;;;5056292;28;20029;-74
2022/11/07 06:38:03;;;;;;;4.60;0.88;;;11.00;99.90;;;;;;5056639;28;20047;-74
2022/11/07 06:40:30;;;;;;;5.65;0.90;;;11.00;99.90;;;;;;5056233;28;20034;-75
2022/11/07 06:43:06;;;;;;;4.05;1.17;;;11.00;99.90;;;;;;5055405;28;20028;-74
2022/11/07 06:45:34;;;;;;;3.15;0.85;;;11.00;99.90;;;;;;5055146;28;20298;-78
2022/11/07 06:48:01;;;;;;;6.60;1.13;;;11.10;99.90;;;;;;5056253;28;20029;-77
2022/11/07 06:50:29;;;;;;;5.97;0.70;;;11.00;99.90;;;;;;5056109;28;20025;-74
2022/11/07 06:53:05;;;;;;;2.95;1.13;;;11.00;99.90;;;;;;5056900;28;20344;-74
2022/11/07 06:55:37;;;;;;;3.63;0.70;;;10.90;99.90;;;;;;5056435;28;20020;-74
2022/11/07 06:58:04;;;;;;;5.30;1.13;;;10.80;99.90;;;;;;5056195;28;20036;-72
2022/11/07 07:00:34;;;;;;;5.85;1.17;;;10.70;99.90;;;;;;5066282;28;20387;-72
2022/11/07 07:03:02;;;;;;;5.82;1.55;;;10.70;99.90;;;;;;5076332;28;20012;-71
2022/11/07 07:05:29;;;;;;;5.22;1.13;;;10.60;99.90;;;;;;5076030;28;20078;-72
2022/11/07 07:07:57;;;;;;;9.18;0.80;;;10.60;99.90;;;;;;5076155;28;20020;-73
2022/11/07 07:10:26;;;;;;;3.42;1.20;;;10.60;99.90;;;;;;5079172;28;20051;-72
2022/11/07 07:12:55;;;;;;;8.18;1.75;;;10.60;99.90;;;;;;5080027;28;20406;-72
2022/11/07 07:15:22;;;;;;;5.05;0.80;;;10.50;99.90;;;;;;5079738;28;20032;-71
2022/11/07 07:17:50;;;;;;;3.42;0.93;;;10.60;99.90;;;;;;5080428;28;20103;-72
2022/11/07 07:20:17;;;;;;;5.50;1.27;;;10.60;99.90;;;;;;5080266;28;20099;-72
2022/11/07 07:22:45;;;;;;;10.93;1.33;;;10.50;99.90;;;;;;5079928;28;20021;-74
2022/11/07 07:25:12;;;;;;;5.90;1.38;;;10.50;99.90;;;;;;5079672;28;20016;-73
2022/11/07 07:27:40;;;;;;;3.05;0.80;;;10.50;99.90;;;;;;5061889;28;20030;-72
2022/11/07 07:30:08;;;;;;;5.90;0.80;;;10.40;99.90;;;;;;5080118;28;20032;-72
2022/11/07 07:32:38;;;;;;;4.78;1.20;;;10.40;99.90;;;;;;5079675;28;20103;-73
2022/11/07 07:35:06;;;;;;;10.68;1.15;;;10.40;99.90;;;;;;5079480;28;20032;-69
2022/11/07 07:37:34;;;;;;;5.13;0.80;;;10.50;99.90;;;;;;5079519;28;20039;-69
2022/11/07 07:40:01;;;;;;;6.45;2.15;;;10.50;99.90;;;;;;5079891;28;20073;-75
2022/11/07 07:42:29;;;;;;;3.70;0.93;;;10.60;99.90;;;;;;5079571;28;20096;-71
2022/11/07 07:44:58;;;;;;;2.90;1.05;;;10.60;99.90;;;;;;5079830;28;20073;-70
2022/11/07 07:47:26;;;;;;;5.82;1.08;;;10.60;99.90;;;;;;5079260;28;20021;-69
2022/11/07 07:49:53;;;;;;;3.75;1.10;;;10.60;99.90;;;;;;5061487;28;20029;-69
2022/11/07 07:52:21;;;;;;;4.82;0.75;;;10.70;99.90;;;;;;5079404;28;20403;-70
2022/11/07 07:54:48;;;;;;;4.95;0.70;;;10.70;99.90;;;;;;5079166;28;20025;-71
2022/11/07 07:57:16;;;;;;;2.88;0.85;;;10.70;99.90;;;;;;5061415;28;20027;-71
2022/11/07 07:59:43;;;;;;;2.20;1.13;;;10.80;99.90;;;;;;5079176;28;20182;-69
2022/11/07 08:02:11;;;;;;;6.85;1.20;;;10.90;99.90;;;;;;5079269;28;20472;-69
2022/11/07 08:04:42;;;;;;;3.20;0.93;;;11.00;99.90;;;;;;5079516;28;20433;-70
2022/11/07 08:07:10;;;;;;;4.57;1.27;;;11.10;99.90;;;;;;5079307;28;20046;-70
2022/11/07 08:09:37;;;;;;;4.97;0.90;;;11.20;99.90;;;;;;5078946;28;20028;-69
2022/11/07 08:12:07;;;;;;;6.15;1.20;;;11.20;99.90;;;;;;5079141;28;20108;-70
2022/11/07 08:14:35;;;;;;;4.13;1.13;;;11.20;99.90;;;;;;5078737;28;20317;-70
2022/11/07 08:17:03;;;;;;;3.05;1.20;;;11.20;99.90;;;;;;5077693;28;20044;-69
2022/11/07 08:19:30;;;;;;;2.75;0.68;;;11.20;99.90;;;;;;5079219;28;20024;-70
2022/11/07 08:21:58;;;;;;;6.57;1.08;;;11.20;99.90;;;;;;5077756;28;20020;-69
2022/11/07 08:24:26;;;;;;;5.70;0.98;;;11.20;99.90;;;;;;5078963;28;20048;-70
2022/11/07 08:26:54;;;;;;;7.68;1.30;;;11.30;99.90;;;;;;5060910;28;20482;-70
2022/11/07 08:29:21;;;;;;;3.60;1.10;;;11.30;99.90;;;;;;5078739;28;20103;-69
2022/11/07 08:31:49;;;;;;;6.97;1.30;;;11.40;99.90;;;;;;5078811;28;20032;-70
2022/11/07 08:34:17;;;;;;;5.65;1.00;;;11.50;99.90;;;;;;5079210;28;20028;-70
2022/11/07 08:36:44;;;;;;;6.20;1.15;;;11.60;99.90;;;;;;5061093;28;20031;-70
2022/11/07 08:39:12;;;;;;;4.93;0.95;;;11.70;99.90;;;;;;5078293;28;20027;-70
2022/11/07 08:41:39;;;;;;;3.05;0.88;;;11.70;99.90;;;;;;5078319;28;20024;-70
2022/11/07 08:44:08;;;;;;;4.50;0.80;;;11.80;99.90;;;;;;5060967;28;20028;-70
2022/11/07 08:46:36;;;;;;;6.47;1.58;;;11.80;99.90;;;;;;5078720;28;20021;-69
2022/11/07 08:49:03;;;;;;;4.28;0.80;;;11.80;99.90;;;;;;5078210;28;20019;-69
2022/11/07 08:51:31;;;;;;;5.22;0.85;;;11.90;99.90;;;;;;5060397;28;20083;-69
2022/11/07 08:53:59;;;;;;;5.68;1.10;;;11.90;99.90;;;;;;5078159;28;20115;-70
2022/11/07 08:56:27;;;;;;;4.88;1.00;;;12.00;99.90;;;;;;5077934;28;20082;-69
2022/11/07 08:58:54;;;;;;;3.85;1.10;;;12.00;99.90;;;;;;5078461;28;20027;-69
2022/11/07 09:01:21;;;;;;;3.60;1.17;;;12.00;99.90;;;;;;5077678;28;20040;-69
2022/11/07 09:03:49;;;;;;;3.15;1.10;;;12.20;99.90;;;;;;5077983;28;20115;-69
2022/11/07 09:06:17;;;;;;;5.13;0.93;;;12.20;99.90;;;;;;5078381;28;20012;-70
2022/11/07 09:08:45;;;;;;;6.13;1.42;;;12.30;99.90;;;;;;5078057;28;20095;-70
2022/11/07 09:11:14;;;;;;;5.97;1.63;;;12.30;99.90;;;;;;5077724;28;20048;-70
2022/11/07 09:13:41;;;;;;;4.80;1.05;;;12.40;99.90;;;;;;5078428;28;20424;-70
2022/11/07 09:16:09;;;;;;;9.77;2.03;;;12.40;99.90;;;;;;5077562;28;20428;-70
2022/11/07 09:18:37;;;;;;;6.13;1.05;;;12.50;99.90;;;;;;5059887;28;20025;-70
2022/11/07 09:21:05;;;;;;;3.58;0.70;;;12.60;99.90;;;;;;5060511;28;20108;-70
2022/11/07 09:23:32;;;;;;;5.45;1.23;;;12.70;99.90;;;;;;5077940;28;20070;-69
2022/11/07 09:26:03;;;;;;;5.80;1.15;;;12.70;99.90;;;;;;5077748;28;20404;-70
2022/11/07 09:28:30;;;;;;;3.05;1.27;;;12.80;99.90;;;;;;5077741;28;20290;-70
2022/11/07 09:30:59;;;;;;;6.63;1.33;;;12.80;99.90;;;;;;5077726;28;20056;-70
2022/11/07 09:33:26;;;;;;;6.55;0.95;;;13.00;99.90;;;;;;5077104;28;20051;-70
2022/11/07 09:35:54;;;;;;;3.45;0.80;;;13.00;99.90;;;;;;5077829;28;20052;-70
2022/11/07 09:38:21;;;;;;;5.88;1.42;;;13.10;99.90;;;;;;5077822;28;20059;-70
2022/11/07 09:41:04;;;;;;;6.82;1.10;;;13.10;99.90;;;;;;5077111;28;20024;-70
2022/11/07 09:44:08;;;;;;;5.38;1.10;;;13.20;99.90;;;;;;5077267;28;20443;-70
2022/11/07 09:46:52;;;;;;;4.80;1.63;;;13.20;99.90;;;;;;5077528;28;20027;-70
2022/11/07 09:49:40;;;;;;;5.43;1.10;;;13.20;99.90;;;;;;5077050;28;20099;-70
2022/11/07 09:52:29;;;;;;;4.15;0.77;;;13.20;99.90;;;;;;5077187;28;20039;-70
2022/11/07 09:55:15;;;;;;;5.43;1.52;;;13.30;99.90;;;;;;5077497;28;20293;-70
2022/11/07 09:57:42;;;;;;;7.63;1.05;;;13.40;99.90;;;;;;5059134;28;20398;-70
2022/11/07 10:00:17;;;;;;;2.88;0.77;;;13.50;99.90;;;;;;5055663;28;20045;-70
2022/11/07 10:02:50;;;;;;;4.30;0.68;;;13.60;99.90;;;;;;5056708;28;20033;-70
2022/11/07 10:05:24;;;;;;;2.42;0.60;;;13.70;99.90;;;;;;5057080;28;20017;-70
2022/11/07 10:08:12;;;;;;;7.82;1.42;;;13.70;99.90;;;;;;5057318;28;20017;-70
2022/11/07 10:10:58;;;;;;;5.30;1.35;;;13.80;99.90;;;;;;5057298;28;20031;-70
2022/11/07 10:13:48;;;;;;;5.25;1.42;;;13.80;99.90;;;;;;5057249;28;20028;-70
2022/11/07 10:16:36;;;;;;;9.57;1.35;;;13.80;99.90;;;;;;5056949;28;20021;-70
2022/11/07 10:19:51;;;;;;;5.65;1.48;;;13.80;99.90;;;;;;5057297;28;20025;-70
2022/11/07 10:22:47;;;;;;;6.32;0.98;;;13.70;99.90;;;;;;5056093;28;20387;-70
2022/11/07 10:25:20;;;;;;;4.43;0.80;;;13.70;99.90;;;;;;5056849;28;20028;-69
2022/11/07 10:28:13;;;;;;;10.40;1.02;;;13.60;99.90;;;;;;5056667;28;20047;-70
2022/11/07 10:30:46;;;;;;;6.07;1.13;;;13.60;99.90;;;;;;5056270;28;20021;-70
2022/11/07 10:33:50;;;;;;;10.60;1.27;;;13.70;99.90;;;;;;5056512;28;20447;-70
2022/11/07 10:36:26;;;;;;;6.35;0.65;;;13.70;99.90;;;;;;5056399;28;20025;-70
2022/11/07 10:38:54;;;;;;;5.90;0.95;;;13.80;99.90;;;;;;5056331;28;20035;-69
2022/11/07 10:41:28;;;;;;;6.45;0.90;;;13.80;99.90;;;;;;5072599;28;20108;-70
2022/11/07 10:44:06;;;;;;;3.88;0.80;;;14.00;99.90;;;;;;5057347;28;20017;-70
2022/11/07 10:46:43;;;;;;;7.30;1.05;;;14.10;99.90;;;;;;5060582;28;20360;-70
2022/11/07 10:49:26;;;;;;;2.60;0.70;;;14.20;99.90;;;;;;5060422;28;20074;-70
2022/11/07 10:51:54;;;;;;;2.42;0.80;;;14.30;99.90;;;;;;5060590;28;20421;-70
2022/11/07 10:54:31;;;;;;;6.10;1.67;;;14.40;99.90;;;;;;5060909;28;20405;-69
2022/11/07 10:57:16;;;;;;;7.45;1.02;;;14.40;99.90;;;;;;5075977;28;20017;-69
2022/11/07 11:00:04;;;;;;;7.88;1.80;;;14.40;99.90;;;;;;5063514;28;20132;-70
2022/11/07 11:02:49;;;;;;;6.50;1.75;;;14.30;99.90;;;;;;5080368;28;20066;-70
2022/11/07 11:05:33;;;;;;;6.20;1.83;;;14.40;99.90;;;;;;5080131;28;20024;-69
2022/11/07 11:08:16;;;;;;;3.15;1.17;;;14.40;99.90;;;;;;5062459;28;20017;-70
2022/11/07 11:10:44;;;;;;;6.88;1.73;;;14.40;99.90;;;;;;5080604;28;20036;-69
2022/11/07 11:13:45;;;;;;;2.70;1.00;;;14.50;99.90;;;;;;5080192;28;20017;-70
2022/11/07 11:16:20;;;;;;;4.28;0.82;;;14.60;99.90;;;;;;5046928;28;20102;-70
2022/11/07 11:18:59;;;;;;;2.83;0.82;;;14.70;99.90;;;;;;5080771;28;20024;-70
2022/11/07 11:21:43;;;;;;;8.07;0.75;;;14.80;99.90;;;;;;5079809;28;20161;-69
2022/11/07 11:24:31;;;;;;;3.47;0.80;;;14.80;99.90;;;;;;5079799;28;20016;-70
2022/11/07 11:27:13;;;;;;;8.30;0.90;;;14.80;99.90;;;;;;5079677;28;20040;-70
2022/11/07 11:30:04;;;;;;;4.07;1.10;;;14.90;99.90;;;;;;5079702;28;20021;-70
2022/11/07 11:32:38;;;;;;;4.40;1.00;;;15.00;99.90;;;;;;5080223;28;20025;-69
2022/11/07 11:35:15;;;;;;;4.45;1.42;;;15.00;99.90;;;;;;5079742;28;20129;-70
2022/11/07 11:37:49;;;;;;;8.88;1.52;;;14.90;99.90;;;;;;5080274;28;20106;-70
2022/11/07 11:40:21;;;;;;;6.65;1.42;;;14.90;99.90;;;;;;5079309;28;20029;-70
2022/11/07 11:43:07;;;;;;;4.65;1.42;;;14.90;99.90;;;;;;5079428;28;20025;-70
2022/11/07 11:45:59;;;;;;;4.13;1.00;;;14.80;99.90;;;;;;5079856;28;20040;-70
2022/11/07 11:48:41;;;;;;;2.67;1.08;;;14.80;99.90;;;;;;5079433;28;20324;-70
2022/11/07 11:51:36;;;;;;;2.40;0.90;;;14.80;99.90;;;;;;5079301;28;20321;-70
2022/11/07 11:54:10;;;;;;;3.78;1.15;;;14.90;99.90;;;;;;5061484;28;20033;-70
2022/11/07 11:56:56;;;;;;;3.63;0.90;;;14.90;99.90;;;;;;5079057;28;20021;-70
2022/11/07 11:59:29;;;;;;;5.07;0.80;;;14.80;99.90;;;;;;5079358;28;20455;-70
2022/11/07 12:02:40;;;;;;;6.47;1.25;;;14.80;99.90;;;;;;5079620;28;20035;-70
2022/11/07 12:05:44;;;;;;;5.20;1.75;;;14.80;99.90;;;;;;5079309;28;20020;-70
2022/11/07 12:08:40;;;;;;;2.30;0.90;;;14.70;99.90;;;;;;5079667;28;20027;-69
2022/11/07 12:11:30;;;;;;;4.53;1.00;;;14.70;99.90;;;;;;5079155;28;20316;-71
2022/11/07 12:14:37;;;;;;;3.30;0.98;;;14.60;99.90;;;;;;5079406;28;20031;-71
2022/11/07 12:17:31;;;;;;;3.20;0.80;;;14.60;99.90;;;;;;5061142;28;20035;-71
2022/11/07 12:20:30;;;;;;;6.63;0.98;;;14.50;99.90;;;;;;5079169;28;20028;-70
2022/11/07 12:23:25;;;;;;;4.65;1.23;;;14.50;99.90;;;;;;5078491;28;20033;-69
2022/11/07 12:26:15;;;;;;;8.85;1.02;;;14.60;99.90;;;;;;5078898;28;20021;-70
2022/11/07 12:28:56;;;;;;;3.25;0.98;;;14.70;99.90;;;;;;5079207;28;20020;-71
2022/11/07 12:31:39;;;;;;;5.43;1.23;;;14.60;99.90;;;;;;5078948;28;20460;-70
2022/11/07 12:34:23;;;;;;;3.55;1.35;;;14.60;99.90;;;;;;5079003;28;20024;-71
2022/11/07 12:37:22;;;;;;;8.90;1.75;;;14.40;99.90;;;;;;5060637;28;20033;-69
2022/11/07 12:40:03;;;;;;;4.97;1.00;;;14.30;99.90;;;;;;5060467;28;20119;-71
2022/11/07 12:43:01;;;;;;;4.40;1.00;;;14.20;99.90;;;;;;5078870;28;20012;-70
2022/11/07 12:46:01;;;;;;;4.20;1.55;;;14.20;99.90;;;;;;5060412;28;20412;-71
2022/11/07 12:48:38;;;;;;;4.65;1.75;;;14.20;99.90;;;;;;5078569;28;20017;-71
2022/11/07 12:51:26;;;;;;;6.60;1.52;;;14.20;99.90;;;;;;5078652;28;20021;-70
2022/11/07 12:54:09;;;;;;;4.10;0.73;;;14.20;99.90;;;;;;5078655;28;20094;-71
2022/11/07 12:56:38;;;;;;;5.50;0.90;;;14.10;99.90;;;;;;5060391;28;20059;-71
2022/11/07 12:59:15;;;;;;;4.25;0.93;;;13.90;99.90;;;;;;5077921;28;20020;-71
2022/11/07 13:01:53;;;;;;;3.85;0.93;;;13.80;99.90;;;;;;5077508;28;20048;-70
2022/11/07 13:04:32;;;;;;;6.45;1.05;;;13.50;99.90;;;;;;5077798;28;20099;-71
2022/11/07 13:07:32;;;;;;;6.97;1.35;;;13.20;99.90;;;;;;5077804;28;20031;-71
2022/11/07 13:10:03;;;;;;;5.65;1.02;;;12.90;99.90;;;;;;5078044;28;20024;-71
2022/11/07 13:12:51;;;;;;;4.03;0.90;;;12.70;99.90;;;;;;5078304;28;20024;-72
2022/11/07 13:15:18;;;;;;;4.85;0.90;;;12.60;99.90;;;;;;5077561;28;20028;-72
2022/11/07 13:17:47;;;;;;;4.18;0.90;;;12.50;99.90;;;;;;5077718;28;20025;-71
2022/11/07 13:20:29;;;;;;;8.88;1.10;;;12.40;99.90;;;;;;5077451;28;20079;-71
2022/11/07 13:23:00;;;;;;;2.58;1.00;;;12.40;99.90;;;;;;5077446;28;20353;-72
2022/11/07 13:25:30;;;;;;;2.72;0.85;;;12.30;99.90;;;;;;5078001;28;20404;-71
2022/11/07 13:27:58;;;;;;;4.88;1.35;;;12.30;99.90;;;;;;5059841;28;20124;-69
2022/11/07 13:30:37;;;;;;;4.65;1.20;;;12.20;99.90;;;;;;5077859;28;20028;-69
2022/11/07 13:33:05;;;;;;;5.10;1.23;;;12.20;99.90;;;;;;5077236;28;20024;-70